Time;durP1;ratioP1;P1;durP2;ratioP2;P2;SDS_P1;SDS_P2;PMS_P1;PMS_P2;Temp;Humidity;BMP_temperature;BMP_pressure;BME280_temperature;BME280_humidity;BME280_pressure;Samples;Min_cycle;Max_cycle;Signal;HPM_P1;HPM_P2
2022/11/06 00:00:20;;;;;;;;;;;10.20;93.00;;;;;;4988352;28;19936;-73
2022/11/06 00:02:45;;;;;;;;;;;10.20;92.90;;;;;;4987135;28;20067;-73
2022/11/06 00:07:55;;;;;;;;;;;10.20;93.00;;;;;;4987534;28;19963;-73
2022/11/06 00:10:21;;;;;;;;;;;10.20;93.00;;;;;;4986606;28;19961;-73
2022/11/06 00:12:46;;;;;;;;;;;10.20;93.00;;;;;;4987208;28;19914;-73
2022/11/06 00:15:12;;;;;;;;;;;10.20;92.80;;;;;;4986952;28;19917;-73
2022/11/06 00:17:38;;;;;;;;;;;10.20;93.00;;;;;;4986965;28;19921;-73
2022/11/06 00:20:04;;;;;;;;;;;10.20;93.00;;;;;;4986059;28;19918;-73
2022/11/06 00:22:34;;;;;;;;;;;10.20;93.00;;;;;;4986951;28;19928;-73
2022/11/06 00:25:00;;;;;;;;;;;10.20;93.00;;;;;;4986996;28;20426;-73
2022/11/06 00:27:25;;;;;;;;;;;10.20;93.00;;;;;;4986558;28;19917;-73
2022/11/06 00:29:51;;;;;;;;;;;10.20;93.00;;;;;;4986789;28;20614;-73
2022/11/06 00:32:17;;;;;;;;;;;10.20;93.00;;;;;;4987227;28;19965;-73
2022/11/06 00:34:42;;;;;;;;;;;10.20;93.10;;;;;;4986609;28;20622;-73
2022/11/06 00:37:07;;;;;;;;;;;10.20;93.00;;;;;;4985694;28;19913;-73
2022/11/06 00:39:33;;;;;;;;;;;10.20;93.10;;;;;;4984506;28;20523;-73
2022/11/06 00:41:58;;;;;;;;;;;10.20;93.10;;;;;;4986855;28;19933;-73
2022/11/06 00:44:24;;;;;;;;;;;10.20;93.10;;;;;;4986327;28;19914;-73
2022/11/06 00:46:49;;;;;;;;;;;10.20;93.10;;;;;;4987158;28;19918;-73
2022/11/06 00:49:15;;;;;;;;;;;10.10;92.90;;;;;;4986752;28;19914;-73
2022/11/06 00:51:41;;;;;;;;;;;10.10;93.00;;;;;;4986049;28;19918;-74
2022/11/06 00:54:09;;;;;;;;;;;10.20;93.10;;;;;;4986039;28;19917;-73
2022/11/06 00:56:34;;;;;;;;;;;10.10;93.10;;;;;;4986557;28;20035;-73
2022/11/06 00:59:00;;;;;;;;;;;10.10;93.10;;;;;;4986103;28;19960;-73
2022/11/06 01:01:30;;;;;;;;;;;10.10;93.10;;;;;;4985882;28;19921;-73
2022/11/06 01:03:57;;;;;;;;;;;10.10;93.10;;;;;;4986822;28;20588;-73
2022/11/06 01:06:24;;;;;;;;;;;10.10;93.10;;;;;;4986913;28;19913;-73
2022/11/06 01:08:50;;;;;;;;;;;10.20;93.10;;;;;;4985829;28;19921;-73
2022/11/06 01:11:16;;;;;;;;;;;10.10;93.00;;;;;;4986053;28;19925;-73
2022/11/06 01:13:41;;;;;;;;;;;10.10;93.00;;;;;;4986389;28;20352;-73
2022/11/06 01:16:08;;;;;;;;;;;10.10;93.00;;;;;;4985756;28;19922;-73
2022/11/06 01:18:34;;;;;;;;;;;10.10;93.00;;;;;;4986266;28;20086;-73
2022/11/06 01:21:03;;;;;;;;;;;10.10;92.90;;;;;;4985791;28;19996;-73
2022/11/06 01:23:28;;;;;;;;;;;10.10;93.00;;;;;;4986025;28;20013;-73
2022/11/06 01:26:01;;;;;;;;;;;10.10;92.90;;;;;;4985513;28;19996;-73
2022/11/06 01:28:27;;;;;;;;;;;10.10;92.90;;;;;;4985575;28;19977;-73
2022/11/06 01:30:52;;;;;;;;;;;10.10;93.00;;;;;;4985353;28;20025;-73
2022/11/06 01:33:18;;;;;;;;;;;10.10;92.90;;;;;;4984462;28;19968;-73
2022/11/06 01:35:44;;;;;;;;;;;10.10;93.00;;;;;;4985916;28;20318;-73
2022/11/06 01:38:10;;;;;;;;;;;10.10;92.90;;;;;;4986159;28;19910;-73
2022/11/06 01:40:39;;;;;;;;;;;10.10;92.90;;;;;;4985612;28;19924;-73
2022/11/06 01:43:10;;;;;;;;;;;10.10;93.00;;;;;;4985916;28;19972;-73
2022/11/06 01:45:37;;;;;;;;;;;10.10;93.00;;;;;;4984935;28;19913;-73
2022/11/06 01:48:04;;;;;;;;;;;10.10;92.90;;;;;;4985420;28;19910;-73
2022/11/06 01:50:29;;;;;;;;;;;10.10;92.90;;;;;;4985555;28;20004;-73
2022/11/06 01:52:55;;;;;;;;;;;10.00;92.90;;;;;;4986214;28;20008;-73
2022/11/06 01:55:26;;;;;;;;;;;10.00;92.90;;;;;;4985590;28;19917;-73
2022/11/06 01:57:52;;;;;;;;;;;10.00;92.90;;;;;;4985397;28;20451;-73
2022/11/06 02:00:19;;;;;;;;;;;10.00;92.90;;;;;;4984961;28;19924;-73
2022/11/06 02:02:44;;;;;;;;;;;10.00;92.90;;;;;;4985586;28;20579;-73
2022/11/06 02:05:10;;;;;;;;;;;10.00;92.90;;;;;;4985324;28;19918;-73
2022/11/06 02:07:35;;;;;;;;;;;10.00;92.90;;;;;;4985661;28;20589;-73
2022/11/06 02:10:01;;;;;;;;;;;10.00;92.90;;;;;;4985191;28;19921;-73
2022/11/06 02:12:50;;;;;;;;;;;10.00;92.90;;;;;;4984995;28;19924;-73
2022/11/06 02:15:18;;;;;;;;;;;10.00;92.90;;;;;;4985587;28;19933;-74
2022/11/06 02:17:50;;;;;;;;;;;10.00;92.90;;;;;;4985341;28;20397;-73
2022/11/06 02:20:16;;;;;;;;;;;10.00;92.90;;;;;;4984984;28;19910;-73
2022/11/06 02:22:44;;;;;;;;;;;10.00;92.90;;;;;;4986117;28;19937;-73
2022/11/06 02:25:33;;;;;;;;;;;10.00;92.90;;;;;;4989457;28;20448;-73
2022/11/06 02:28:18;;;;;;;;;;;10.00;92.90;;;;;;4987706;28;20032;-73
2022/11/06 02:30:45;;;;;;;;;;;10.00;92.90;;;;;;4980387;28;19918;-73
2022/11/06 02:33:13;;;;;;;;;;;10.00;92.80;;;;;;4989267;28;20259;-73
2022/11/06 02:35:51;;;;;;;;;;;9.90;92.80;;;;;;4985406;28;20394;-73
2022/11/06 02:38:21;;;;;;;;;;;9.90;92.80;;;;;;4989095;28;19921;-73
2022/11/06 02:40:50;;;;;;;;;;;9.90;92.90;;;;;;4988677;28;19918;-73
2022/11/06 02:43:16;;;;;;;;;;;9.90;92.80;;;;;;4988742;28;19913;-73
2022/11/06 02:45:47;;;;;;;;;;;9.90;92.80;;;;;;4988611;28;20442;-73
2022/11/06 02:48:13;;;;;;;;;;;9.90;92.80;;;;;;4989760;28;20412;-73
2022/11/06 02:50:42;;;;;;;;;;;9.90;92.80;;;;;;4988704;28;19917;-73
2022/11/06 02:53:08;;;;;;;;;;;9.90;92.90;;;;;;4988427;28;19918;-73
2022/11/06 02:55:39;;;;;;;;;;;9.90;92.80;;;;;;4988578;28;19918;-73
2022/11/06 02:58:10;;;;;;;;;;;9.90;92.90;;;;;;4988488;28;19918;-73
2022/11/06 03:00:36;;;;;;;;;;;9.90;92.80;;;;;;4979095;28;19913;-73
2022/11/06 03:03:05;;;;;;;;;;;9.90;92.80;;;;;;4988205;28;19969;-73
2022/11/06 03:05:34;;;;;;;;;;;9.90;92.80;;;;;;4988462;28;20012;-73
2022/11/06 03:08:02;;;;;;;;;;;9.90;92.80;;;;;;4988400;28;20303;-73
2022/11/06 03:10:31;;;;;;;;;;;9.90;92.80;;;;;;4987554;28;19926;-73
2022/11/06 03:12:59;;;;;;;;;;;9.90;92.90;;;;;;4988651;28;19922;-73
2022/11/06 03:15:30;;;;;;;;;;;9.90;93.00;;;;;;4988576;28;20274;-73
2022/11/06 03:18:16;;;;;;;;;;;9.90;92.80;;;;;;4988397;28;19924;-73
2022/11/06 03:20:57;;;;;;;;;;;9.90;92.80;;;;;;4988113;28;19933;-73
2022/11/06 03:23:26;;;;;;;;;;;9.90;92.80;;;;;;4988264;28;19921;-73
2022/11/06 03:26:24;;;;;;;;;;;9.90;92.80;;;;;;4968676;28;19962;-73
2022/11/06 03:28:52;;;;;;;;;;;9.90;92.90;;;;;;4961881;28;19909;-73
2022/11/06 03:31:23;;;;;;;;;;;9.90;92.90;;;;;;4987894;28;19946;-73
2022/11/06 03:33:53;;;;;;;;;;;9.80;92.80;;;;;;4987624;28;19964;-73
2022/11/06 03:36:18;;;;;;;;;;;9.80;92.70;;;;;;4987272;28;19957;-73
2022/11/06 03:38:47;;;;;;;;;;;9.80;92.80;;;;;;4988083;28;20351;-73
2022/11/06 03:41:17;;;;;;;;;;;9.80;92.80;;;;;;4987436;28;19917;-73
2022/11/06 03:43:44;;;;;;;;;;;9.90;92.80;;;;;;4987289;28;19929;-73
2022/11/06 03:46:15;;;;;;;;;;;9.80;92.80;;;;;;4987835;28;19917;-73
2022/11/06 03:48:42;;;;;;;;;;;9.80;92.80;;;;;;4987786;28;19918;-73
2022/11/06 03:51:20;;;;;;;;;;;9.80;92.80;;;;;;4986996;28;19914;-73
2022/11/06 03:53:48;;;;;;;;;;;9.80;92.80;;;;;;4987913;28;19921;-73
2022/11/06 03:56:16;;;;;;;;;;;9.80;92.80;;;;;;4987734;28;19988;-73
2022/11/06 03:58:44;;;;;;;;;;;9.80;92.80;;;;;;4986783;28;20290;-73
2022/11/06 04:01:10;;;;;;;;;;;9.80;92.80;;;;;;4987399;28;20433;-73
2022/11/06 04:03:40;;;;;;;;;;;9.80;92.80;;;;;;4987488;28;19910;-74
2022/11/06 04:06:12;;;;;;;;;;;9.80;92.80;;;;;;4987637;28;19956;-73
2022/11/06 04:14:09;;;;;;;;;;;9.80;92.80;;;;;;4976820;28;19996;-73
2022/11/06 04:16:38;;;;;;;;;;;9.80;92.80;;;;;;4987124;28;19918;-73
2022/11/06 04:19:14;;;;;;;;;;;9.80;92.80;;;;;;4987465;28;19914;-73
2022/11/06 04:21:42;;;;;;;;;;;9.80;92.80;;;;;;4986887;28;20533;-73
2022/11/06 04:27:24;;;;;;;;;;;9.80;92.90;;;;;;4987094;28;19964;-73
2022/11/06 04:30:02;;;;;;;;;;;9.80;92.80;;;;;;4985571;28;19914;-73
2022/11/06 04:32:27;;;;;;;;;;;9.80;92.80;;;;;;4985982;28;19922;-73
2022/11/06 04:35:00;;;;;;;;;;;9.80;92.80;;;;;;4987344;28;19918;-72
2022/11/06 04:37:35;;;;;;;;;;;9.80;92.80;;;;;;4983897;28;19921;-73
2022/11/06 04:40:10;;;;;;;;;;;9.80;92.90;;;;;;4986151;28;20420;-74
2022/11/06 04:42:46;;;;;;;;;;;9.80;92.80;;;;;;4986922;28;20520;-73
2022/11/06 04:45:32;;;;;;;;;;;9.80;92.80;;;;;;4986833;28;19971;-73
2022/11/06 04:47:58;;;;;;;;;;;9.80;92.90;;;;;;4985554;28;19929;-73
2022/11/06 04:50:25;;;;;;;;;;;9.70;92.80;;;;;;4984923;28;19914;-73
2022/11/06 04:52:51;;;;;;;;;;;9.70;92.80;;;;;;4986495;28;20390;-73
2022/11/06 04:55:16;;;;;;;;;;;9.70;92.80;;;;;;4986126;28;19917;-73
2022/11/06 04:57:42;;;;;;;;;;;9.70;92.80;;;;;;4986265;28;20411;-73
2022/11/06 05:00:13;;;;;;;;;;;9.70;92.80;;;;;;4986322;28;20015;-73
2022/11/06 05:02:39;;;;;;;;;;;9.70;92.80;;;;;;4986706;28;19916;-73
2022/11/06 05:05:05;;;;;;;;;;;9.70;92.80;;;;;;4986008;28;20545;-73
2022/11/06 05:07:30;;;;;;;;;;;9.70;92.80;;;;;;4985919;28;19913;-73
2022/11/06 05:09:56;;;;;;;;;;;9.70;92.80;;;;;;4986008;28;19925;-73
2022/11/06 05:12:21;;;;;;;;;;;9.70;92.80;;;;;;4985886;28;19913;-73
2022/11/06 05:14:47;;;;;;;;;;;9.70;92.80;;;;;;4986009;28;20012;-73
2022/11/06 05:17:12;;;;;;;;;;;9.70;92.80;;;;;;4986438;28;19913;-73
2022/11/06 05:19:38;;;;;;;;;;;9.70;92.80;;;;;;4986201;28;20060;-73
2022/11/06 05:24:47;;;;;;;;;;;9.70;92.80;;;;;;4986169;28;19924;-73
2022/11/06 05:27:13;;;;;;;;;;;9.70;92.90;;;;;;4985907;28;19922;-73
2022/11/06 05:29:38;;;;;;;;;;;9.70;92.80;;;;;;4985317;28;19918;-73
2022/11/06 05:32:04;;;;;;;;;;;9.60;92.80;;;;;;4986437;28;19918;-73
2022/11/06 05:34:29;;;;;;;;;;;9.60;92.80;;;;;;4984622;28;19918;-73
2022/11/06 05:36:55;;;;;;;;;;;9.60;92.80;;;;;;4986166;28;19918;-73
2022/11/06 05:39:21;;;;;;;;;;;9.70;92.80;;;;;;4986093;28;19914;-73
2022/11/06 05:41:46;;;;;;;;;;;9.60;93.00;;;;;;4985476;28;20584;-73
2022/11/06 05:44:11;;;;;;;;;;;9.70;92.90;;;;;;4987878;28;19914;-73
2022/11/06 05:46:37;;;;;;;;;;;9.60;92.90;;;;;;4993956;28;19918;-73
2022/11/06 05:49:02;;;;;;;;;;;9.60;92.80;;;;;;4985787;28;19917;-73
2022/11/06 05:51:28;;;;;;;;;;;9.60;92.80;;;;;;4985275;28;19921;-73
2022/11/06 05:53:54;;;;;;;;;;;9.60;92.80;;;;;;4984438;28;19917;-73
2022/11/06 05:56:19;;;;;;;;;;;9.60;92.90;;;;;;4985892;28;20007;-73
2022/11/06 05:58:45;;;;;;;;;;;9.70;92.90;;;;;;4987990;28;19914;-73
2022/11/06 06:01:11;;;;;;;;;;;9.60;92.90;;;;;;4988597;28;20451;-73
2022/11/06 06:03:36;;;;;;;;;;;9.60;92.80;;;;;;4989500;28;19920;-73
2022/11/06 06:06:02;;;;;;;;;;;9.60;92.90;;;;;;4989459;28;20465;-73
2022/11/06 06:08:27;;;;;;;;;;;9.60;92.90;;;;;;4989853;28;20025;-73
2022/11/06 06:10:53;;;;;;;;;;;9.60;92.80;;;;;;4988664;28;19956;-73
2022/11/06 06:13:18;;;;;;;;;;;9.60;92.90;;;;;;4990524;28;19917;-73
2022/11/06 06:15:44;;;;;;;;;;;9.60;92.80;;;;;;4997832;28;19944;-73
2022/11/06 06:18:10;;;;;;;;;;;9.60;92.80;;;;;;4997706;28;20016;-73
2022/11/06 06:20:36;;;;;;;;;;;9.60;92.80;;;;;;4995791;28;20151;-73
2022/11/06 06:23:01;;;;;;;;;;;9.60;92.90;;;;;;4994214;28;20583;-72
2022/11/06 06:25:27;;;;;;;;;;;9.60;92.80;;;;;;5009123;28;19917;-73
2022/11/06 06:27:53;;;;;;;;;;;9.60;92.90;;;;;;5007526;28;20306;-73
2022/11/06 06:30:19;;;;;;;;;;;9.60;92.80;;;;;;4989794;28;20504;-73
2022/11/06 06:32:45;;;;;;;;;;;9.60;92.90;;;;;;4989112;28;19914;-73
2022/11/06 06:35:10;;;;;;;;;;;9.60;92.90;;;;;;4988002;28;19932;-73
2022/11/06 06:37:36;;;;;;;;;;;9.60;92.80;;;;;;4987522;28;20396;-73
2022/11/06 06:40:02;;;;;;;;;;;9.60;92.90;;;;;;4977113;28;19914;-73
2022/11/06 06:42:28;;;;;;;;;;;9.60;92.90;;;;;;4977634;28;19918;-73
2022/11/06 06:44:53;;;;;;;;;;;9.60;92.90;;;;;;4987644;28;20547;-73
2022/11/06 06:47:19;;;;;;;;;;;9.60;92.90;;;;;;4989070;28;19913;-73
2022/11/06 06:49:44;;;;;;;;;;;9.60;92.90;;;;;;4989008;28;19916;-73
2022/11/06 06:52:10;;;;;;;;;;;9.60;92.80;;;;;;4988485;28;19917;-73
2022/11/06 06:54:36;;;;;;;;;;;9.60;92.80;;;;;;4992545;28;19963;-73
2022/11/06 06:57:01;;;;;;;;;;;9.60;92.90;;;;;;4991167;28;19925;-73
2022/11/06 06:59:27;;;;;;;;;;;9.60;92.90;;;;;;4988495;28;20402;-73
2022/11/06 07:01:53;;;;;;;;;;;9.60;92.90;;;;;;4988946;28;19914;-73
2022/11/06 07:04:18;;;;;;;;;;;9.60;92.90;;;;;;4988561;28;20360;-73
2022/11/06 07:06:44;;;;;;;;;;;9.60;92.80;;;;;;4988240;28;19914;-73
2022/11/06 07:09:10;;;;;;;;;;;9.60;92.90;;;;;;4988413;28;20434;-73
2022/11/06 07:11:35;;;;;;;;;;;9.60;92.90;;;;;;4988080;28;19972;-73
2022/11/06 07:14:01;;;;;;;;;;;9.60;92.90;;;;;;4985574;28;19940;-74
2022/11/06 07:16:28;;;;;;;;;;;9.60;92.90;;;;;;4986712;28;19922;-73
2022/11/06 07:18:54;;;;;;;;;;;9.60;92.80;;;;;;4988200;28;19913;-73
2022/11/06 07:21:20;;;;;;;;;;;9.60;92.80;;;;;;4987948;28;19920;-73
2022/11/06 07:23:45;;;;;;;;;;;9.60;92.80;;;;;;4988241;28;19914;-73
2022/11/06 07:26:11;;;;;;;;;;;9.60;92.90;;;;;;4994668;28;19913;-73
2022/11/06 07:28:36;;;;;;;;;;;9.60;92.80;;;;;;5003607;28;19918;-73
2022/11/06 07:31:03;;;;;;;;;;;9.60;92.80;;;;;;4986327;28;20379;-73
2022/11/06 07:33:28;;;;;;;;;;;9.60;92.80;;;;;;4987462;28;19914;-73
2022/11/06 07:35:54;;;;;;;;;;;9.60;92.90;;;;;;4986643;28;19971;-73
2022/11/06 07:38:19;;;;;;;;;;;9.70;92.90;;;;;;4990118;28;20015;-73
2022/11/06 07:40:45;;;;;;;;;;;9.60;92.80;;;;;;4984379;28;19972;-73
2022/11/06 07:43:11;;;;;;;;;;;9.60;92.80;;;;;;4985255;28;19914;-73
2022/11/06 07:45:37;;;;;;;;;;;9.60;92.80;;;;;;4986659;28;19964;-73
2022/11/06 07:48:03;;;;;;;;;;;9.60;92.80;;;;;;4986460;28;20547;-73
2022/11/06 07:50:29;;;;;;;;;;;9.70;92.80;;;;;;4987035;28;19914;-73
2022/11/06 07:52:54;;;;;;;;;;;9.70;92.80;;;;;;4987353;28;19914;-73
2022/11/06 07:55:20;;;;;;;;;;;9.60;92.80;;;;;;4986777;28;19972;-73
2022/11/06 07:57:46;;;;;;;;;;;9.70;92.80;;;;;;4987086;28;19914;-73
2022/11/06 08:00:12;;;;;;;;;;;9.70;92.80;;;;;;4986607;28;19914;-73
2022/11/06 08:02:37;;;;;;;;;;;9.70;92.80;;;;;;4986455;28;20450;-73
2022/11/06 08:05:03;;;;;;;;;;;9.70;92.80;;;;;;4986956;28;19917;-73
2022/11/06 08:07:28;;;;;;;;;;;9.70;92.80;;;;;;4986599;28;19996;-73
2022/11/06 08:09:54;;;;;;;;;;;9.70;92.80;;;;;;4986620;28;19957;-72
2022/11/06 08:12:19;;;;;;;;;;;9.70;92.80;;;;;;4986583;28;19914;-73
2022/11/06 08:14:45;;;;;;;;;;;9.70;92.80;;;;;;4986666;28;19921;-74
2022/11/06 08:17:10;;;;;;;;;;;9.70;92.80;;;;;;4986560;28;20649;-73
2022/11/06 08:19:36;;;;;;;;;;;9.70;92.80;;;;;;4985385;28;19918;-73
2022/11/06 08:22:02;;;;;;;;;;;9.70;92.70;;;;;;4985775;28;19914;-73
2022/11/06 08:24:27;;;;;;;;;;;9.70;92.80;;;;;;4986447;28;20075;-73
2022/11/06 08:26:53;;;;;;;;;;;9.70;92.80;;;;;;4986663;28;20016;-73
2022/11/06 08:29:18;;;;;;;;;;;9.70;92.80;;;;;;4986162;28;19964;-73
2022/11/06 08:31:44;;;;;;;;;;;9.70;92.80;;;;;;4986531;28;20394;-73
2022/11/06 08:34:10;;;;;;;;;;;9.70;92.80;;;;;;4986926;28;19929;-73
2022/11/06 08:36:40;;;;;;;;;;;9.80;92.80;;;;;;4986654;28;20012;-73
2022/11/06 08:39:05;;;;;;;;;;;9.80;92.80;;;;;;4983713;28;19929;-73
2022/11/06 08:41:31;;;;;;;;;;;9.80;92.80;;;;;;4986126;28;19914;-73
2022/11/06 08:43:56;;;;;;;;;;;9.80;92.90;;;;;;4985682;28;20017;-73
2022/11/06 08:46:22;;;;;;;;;;;9.80;92.90;;;;;;4986766;28;19950;-73
2022/11/06 08:48:47;;;;;;;;;;;9.80;92.80;;;;;;4986549;28;20401;-73
2022/11/06 08:51:13;;;;;;;;;;;9.80;92.80;;;;;;4986229;28;19913;-73
2022/11/06 08:53:38;;;;;;;;;;;9.80;92.80;;;;;;4986604;28;19925;-73
2022/11/06 08:56:04;;;;;;;;;;;9.80;92.80;;;;;;4986512;28;19921;-73
2022/11/06 08:58:29;;;;;;;;;;;9.90;92.80;;;;;;4986266;28;19920;-73
2022/11/06 09:00:55;;;;;;;;;;;9.90;92.80;;;;;;4986159;28;19914;-73
2022/11/06 09:03:20;;;;;;;;;;;9.90;92.80;;;;;;4986418;28;19913;-73
2022/11/06 09:05:46;;;;;;;;;;;10.00;92.80;;;;;;4986158;28;20496;-73
2022/11/06 09:08:12;;;;;;;;;;;10.00;92.80;;;;;;4986385;28;19972;-73
2022/11/06 09:10:38;;;;;;;;;;;10.00;92.70;;;;;;4984457;28;19946;-73
2022/11/06 09:13:04;;;;;;;;;;;10.00;92.70;;;;;;4986461;28;20359;-72
2022/11/06 09:15:29;;;;;;;;;;;10.10;92.60;;;;;;4986007;28;19964;-73
2022/11/06 09:17:55;;;;;;;;;;;10.10;92.50;;;;;;4986218;28;19961;-73
2022/11/06 09:20:22;;;;;;;;;;;10.20;92.50;;;;;;4985661;28;20023;-73
2022/11/06 09:22:47;;;;;;;;;;;10.20;92.40;;;;;;4984522;28;20495;-73
2022/11/06 09:25:13;;;;;;;;;;;10.30;92.50;;;;;;4986268;28;19997;-73
2022/11/06 09:27:42;;;;;;;;;;;10.30;92.40;;;;;;4986110;28;19920;-73
2022/11/06 09:30:08;;;;;;;;;;;10.30;92.50;;;;;;4985862;28;19940;-73
2022/11/06 09:32:33;;;;;;;;;;;10.40;92.50;;;;;;4985387;28;19971;-73
2022/11/06 09:34:59;;;;;;;;;;;10.40;92.60;;;;;;4984597;28;19914;-74
2022/11/06 09:37:24;;;;;;;;;;;10.40;92.50;;;;;;4985532;28;20700;-73
2022/11/06 09:39:50;;;;;;;;;;;10.40;92.40;;;;;;4985305;28;19914;-73
2022/11/06 09:42:26;;;;;;;;;;;10.50;92.40;;;;;;4985548;28;19922;-73
2022/11/06 09:45:00;;;;;;;;;;;10.50;92.40;;;;;;4986164;28;20037;-73
2022/11/06 09:47:29;;;;;;;;;;;10.60;92.40;;;;;;4986128;28;19913;-73
2022/11/06 09:49:55;;;;;;;;;;;10.60;92.30;;;;;;4985863;28;19968;-73
2022/11/06 09:52:23;;;;;;;;;;;10.60;92.30;;;;;;4985778;28;19918;-73
2022/11/06 09:54:51;;;;;;;;;;;10.70;92.30;;;;;;4985564;28;19914;-73
2022/11/06 09:57:19;;;;;;;;;;;10.70;92.30;;;;;;4985468;28;19957;-74
2022/11/06 09:59:45;;;;;;;;;;;10.70;92.10;;;;;;4985500;28;20602;-73
2022/11/06 10:02:24;;;;;;;;;;;10.80;92.10;;;;;;4985579;28;19914;-73
2022/11/06 10:04:56;;;;;;;;;;;10.80;92.50;;;;;;4985791;28;19914;-73
2022/11/06 10:07:32;;;;;;;;;;;10.80;92.20;;;;;;4985484;28;19926;-73
2022/11/06 10:09:59;;;;;;;;;;;10.90;92.30;;;;;;4985220;28;19921;-73
2022/11/06 10:12:44;;;;;;;;;;;10.90;92.40;;;;;;4985652;28;19925;-73
2022/11/06 10:15:23;;;;;;;;;;;10.90;92.40;;;;;;4985592;28;20463;-73
2022/11/06 10:17:53;;;;;;;;;;;10.90;92.40;;;;;;4985583;28;19910;-73
2022/11/06 10:20:22;;;;;;;;;;;10.80;92.30;;;;;;4985004;28;19949;-73
2022/11/06 10:23:07;;;;;;;;;;;10.90;92.40;;;;;;4985673;28;19918;-73
2022/11/06 10:26:02;;;;;;;;;;;10.90;92.40;;;;;;4985049;28;20650;-73
2022/11/06 10:28:28;;;;;;;;;;;10.90;92.60;;;;;;4984772;28;20738;-73
2022/11/06 10:31:06;;;;;;;;;;;10.90;92.50;;;;;;4985036;28;19914;-73
2022/11/06 10:33:43;;;;;;;;;;;10.90;92.60;;;;;;4985444;28;19916;-73
2022/11/06 10:36:12;;;;;;;;;;;11.00;92.40;;;;;;4985400;28;19917;-73
2022/11/06 10:38:39;;;;;;;;;;;11.00;92.40;;;;;;4985530;28;19918;-74
2022/11/06 10:41:12;;;;;;;;;;;11.00;92.40;;;;;;4985119;28;19918;-74
2022/11/06 10:43:46;;;;;;;;;;;11.10;92.40;;;;;;4985301;28;19976;-73
2022/11/06 10:46:12;;;;;;;;;;;11.10;92.30;;;;;;4989115;28;19914;-73
2022/11/06 10:48:47;;;;;;;;;;;11.20;92.20;;;;;;4985831;28;19914;-73
2022/11/06 10:51:22;;;;;;;;;;;11.30;92.10;;;;;;4987125;28;19921;-74
2022/11/06 10:54:06;;;;;;;;;;;11.30;92.10;;;;;;4988690;28;19929;-73
2022/11/06 10:56:43;;;;;;;;;;;11.30;92.10;;;;;;4988714;28;19914;-73
2022/11/06 10:59:09;;;;;;;;;;;11.30;92.10;;;;;;4988638;28;19929;-73
2022/11/06 11:01:35;;;;;;;;;;;11.30;92.10;;;;;;4988073;28;19914;-73
2022/11/06 11:04:00;;;;;;;;;;;11.30;92.10;;;;;;4988049;28;20429;-73
2022/11/06 11:06:26;;;;;;;;;;;11.30;92.10;;;;;;4988076;28;19914;-73
2022/11/06 11:08:52;;;;;;;;;;;11.40;92.10;;;;;;4987063;28;19979;-73
2022/11/06 11:11:18;;;;;;;;;;;11.40;92.10;;;;;;4988283;28;19925;-73
2022/11/06 11:13:44;;;;;;;;;;;11.40;92.10;;;;;;4988314;28;19962;-73
2022/11/06 11:16:29;;;;;;;;;;;11.50;92.10;;;;;;4988228;28;19918;-73
2022/11/06 11:19:12;;;;;;;;;;;11.50;92.00;;;;;;4987377;28;19918;-73
2022/11/06 11:21:50;;;;;;;;;;;11.50;92.00;;;;;;4988321;28;19910;-73
2022/11/06 11:24:16;;;;;;;;;;;11.50;91.90;;;;;;4987664;28;19988;-73
2022/11/06 11:26:43;;;;;;;;;;;11.60;91.90;;;;;;4987995;28;20426;-73
2022/11/06 11:29:12;;;;;;;;;;;11.60;91.90;;;;;;4986763;28;19961;-73
2022/11/06 11:31:37;;;;;;;;;;;11.60;91.90;;;;;;4986301;28;19918;-75
2022/11/06 11:34:04;;;;;;;;;;;11.60;92.00;;;;;;4988350;28;20043;-74
2022/11/06 11:36:56;;;;;;;;;;;11.60;92.00;;;;;;4988087;28;19929;-74
2022/11/06 11:39:24;;;;;;;;;;;11.60;92.00;;;;;;4987752;28;20290;-74
2022/11/06 11:41:50;;;;;;;;;;;11.60;92.00;;;;;;4987679;28;19921;-74
2022/11/06 11:44:19;;;;;;;;;;;11.60;92.00;;;;;;4987917;28;19921;-74
2022/11/06 11:46:52;;;;;;;;;;;11.70;92.00;;;;;;4987864;28;19909;-74
2022/11/06 11:49:26;;;;;;;;;;;11.70;91.90;;;;;;4986347;28;20484;-74
2022/11/06 11:51:52;;;;;;;;;;;11.70;91.90;;;;;;4968561;28;20701;-74
2022/11/06 11:54:19;;;;;;;;;;;11.70;91.90;;;;;;4968480;28;19922;-75
2022/11/06 11:56:49;;;;;;;;;;;11.80;91.90;;;;;;4965997;28;20251;-75
2022/11/06 11:59:17;;;;;;;;;;;11.80;91.90;;;;;;4976950;28;19910;-74
2022/11/06 12:01:43;;;;;;;;;;;11.80;91.90;;;;;;4986736;28;19920;-74
2022/11/06 12:04:35;;;;;;;;;;;11.80;91.80;;;;;;4986475;28;19921;-75
2022/11/06 12:07:02;;;;;;;;;;;11.80;91.90;;;;;;4984619;28;19968;-74
2022/11/06 12:09:28;;;;;;;;;;;11.80;91.90;;;;;;4986425;28;19968;-75
2022/11/06 12:11:55;;;;;;;;;;;11.90;91.90;;;;;;4986627;28;19996;-74
2022/11/06 12:14:20;;;;;;;;;;;11.90;91.80;;;;;;4986353;28;19968;-74
2022/11/06 12:16:50;;;;;;;;;;;11.90;91.80;;;;;;4986123;28;20633;-74
2022/11/06 12:19:18;;;;;;;;;;;11.90;91.80;;;;;;4985720;28;20271;-74
2022/11/06 12:21:45;;;;;;;;;;;11.90;91.80;;;;;;4985932;28;19914;-74
2022/11/06 12:24:22;;;;;;;;;;;11.90;91.70;;;;;;4986234;28;19922;-75
2022/11/06 12:26:54;;;;;;;;;;;12.00;91.70;;;;;;4986264;28;19918;-74
2022/11/06 12:29:38;;;;;;;;;;;12.00;91.60;;;;;;4985969;28;19936;-74
2022/11/06 12:32:03;;;;;;;;;;;12.00;91.80;;;;;;4967047;28;19993;-75
2022/11/06 12:34:33;;;;;;;;;;;12.00;91.70;;;;;;4966983;28;19918;-75
2022/11/06 12:37:08;;;;;;;;;;;12.00;91.80;;;;;;4975378;28;19941;-74
2022/11/06 12:39:36;;;;;;;;;;;12.00;91.70;;;;;;4985661;28;19964;-74
2022/11/06 12:42:03;;;;;;;;;;;12.00;91.70;;;;;;4985968;28;19928;-75
2022/11/06 12:44:28;;;;;;;;;;;12.00;91.80;;;;;;4986123;28;19917;-74
2022/11/06 12:47:12;;;;;;;;;;;12.00;91.80;;;;;;4984906;28;20359;-74
2022/11/06 12:49:53;;;;;;;;;;;12.00;91.80;;;;;;4984940;28;19914;-74
2022/11/06 12:52:21;;;;;;;;;;;12.00;91.80;;;;;;4985838;28;19920;-74
2022/11/06 12:54:52;;;;;;;;;;;12.00;91.90;;;;;;4985807;28;19918;-74
2022/11/06 12:57:28;;;;;;;;;;;12.00;91.80;;;;;;4985898;28;19917;-74
2022/11/06 13:00:07;;;;;;;;;;;12.00;91.80;;;;;;4980328;28;19913;-74
2022/11/06 13:02:53;;;;;;;;;;;12.00;91.70;;;;;;4985785;28;20000;-74
2022/11/06 13:05:31;;;;;;;;;;;12.00;91.90;;;;;;4984829;28;20013;-74
2022/11/06 13:08:02;;;;;;;;;;;12.00;91.80;;;;;;4984924;28;19913;-74
2022/11/06 13:10:36;;;;;;;;;;;12.00;91.80;;;;;;4984838;28;20318;-74
2022/11/06 13:13:14;;;;;;;;;;;12.00;91.80;;;;;;4985285;28;20283;-74
2022/11/06 13:15:39;;;;;;;;;;;12.00;91.90;;;;;;4984734;28;20008;-74
2022/11/06 13:18:05;;;;;;;;;;;12.00;91.80;;;;;;4985434;28;20004;-74
2022/11/06 13:20:33;;;;;;;;;;;12.00;91.80;;;;;;4985355;28;19920;-74
2022/11/06 13:23:01;;;;;;;;;;;12.00;91.70;;;;;;4985340;28;19910;-74
2022/11/06 13:25:27;;;;;;;;;;;12.00;91.80;;;;;;4984954;28;19929;-75
2022/11/06 13:27:58;;;;;;;;;;;12.00;91.90;;;;;;4985073;28;20303;-74
2022/11/06 13:30:24;;;;;;;;;;;12.00;91.90;;;;;;4984988;28;19917;-75
2022/11/06 13:33:02;;;;;;;;;;;12.00;91.70;;;;;;4984760;28;19914;-74
2022/11/06 13:35:28;;;;;;;;;;;12.00;91.80;;;;;;4984996;28;19921;-74
2022/11/06 13:37:55;;;;;;;;;;;12.00;91.70;;;;;;4985158;28;20371;-75
2022/11/06 13:40:24;;;;;;;;;;;12.00;91.80;;;;;;4985078;28;19914;-75
2022/11/06 13:42:58;;;;;;;;;;;12.00;91.80;;;;;;4984586;28;19922;-74
2022/11/06 13:45:24;;;;;;;;;;;12.00;91.70;;;;;;4985258;28;20449;-74
2022/11/06 13:48:00;;;;;;;;;;;12.00;91.70;;;;;;4984840;28;19980;-74
2022/11/06 13:50:46;;;;;;;;;;;12.00;91.60;;;;;;4984796;28;20297;-74
2022/11/06 13:53:11;;;;;;;;;;;12.00;91.80;;;;;;4984754;28;20059;-74
2022/11/06 13:55:43;;;;;;;;;;;12.00;91.80;;;;;;4985074;28;20270;-75
2022/11/06 13:58:46;;;;;;;;;;;12.00;91.80;;;;;;4985263;28;20397;-74
2022/11/06 14:01:12;;;;;;;;;;;12.00;91.80;;;;;;4960637;28;20001;-74
2022/11/06 14:04:00;;;;;;;;;;;11.90;91.80;;;;;;4962058;28;20016;-75
2022/11/06 14:06:27;;;;;;;;;;;12.00;91.80;;;;;;4975251;28;19941;-74
2022/11/06 14:08:54;;;;;;;;;;;11.90;91.80;;;;;;4984550;28;20009;-74
2022/11/06 14:11:24;;;;;;;;;;;11.90;91.90;;;;;;4999034;28;19927;-74
2022/11/06 14:14:00;;;;;;;;;;;11.90;91.90;;;;;;4984529;28;19914;-74
2022/11/06 14:16:36;;;;;;;;;;;11.90;91.90;;;;;;4984660;28;19921;-74
2022/11/06 14:19:19;;;;;;;;;;;11.90;91.90;;;;;;4985455;28;19918;-74
2022/11/06 14:21:46;;;;;;;;;;;11.90;91.90;;;;;;4988926;28;19928;-74
2022/11/06 14:24:25;;;;;;;;;;;11.90;92.00;;;;;;4987656;28;20390;-75
2022/11/06 14:26:51;;;;;;;;;;;11.80;91.90;;;;;;4989095;28;20469;-74
2022/11/06 14:29:26;;;;;;;;;;;11.80;91.90;;;;;;4988592;28;19924;-75
2022/11/06 14:32:09;;;;;;;;;;;11.80;91.70;;;;;;4972542;28;19924;-74
2022/11/06 14:34:35;;;;;;;;;;;11.90;91.80;;;;;;4988043;28;20335;-74
2022/11/06 14:37:27;;;;;;;;;;;11.80;91.80;;;;;;4988618;28;19924;-74
2022/11/06 14:39:52;;;;;;;;;;;11.80;91.90;;;;;;4989542;28;20333;-74
2022/11/06 14:42:27;;;;;;;;;;;11.80;91.90;;;;;;4995924;28;19918;-74
2022/11/06 14:44:56;;;;;;;;;;;11.80;92.00;;;;;;5004269;28;20282;-74
2022/11/06 14:47:36;;;;;;;;;;;11.80;91.90;;;;;;5006287;28;20016;-74